Time;durP1;ratioP1;P1;durP2;ratioP2;P2;SDS_P1;SDS_P2;PMS_P1;PMS_P2;Temp;Humidity;BMP_temperature;BMP_pressure;BME280_temperature;BME280_humidity;BME280_pressure;Samples;Min_cycle;Max_cycle;Signal;HPM_P1;HPM_P2
2021/09/22 00:01:08;;;;;;;16.13;8.18;;;;;;;12.01;74.67;102711.06;5072930;28;20404;-72
2021/09/22 00:03:35;;;;;;;20.20;7.90;;;;;;;12.10;74.84;102721.00;5053040;28;20040;-72
2021/09/22 00:06:02;;;;;;;23.15;8.40;;;;;;;11.99;75.14;102712.13;5072357;28;20045;-72
2021/09/22 00:08:29;;;;;;;17.90;8.00;;;;;;;12.06;75.12;102713.34;5055276;28;20394;-72
2021/09/22 00:10:57;;;;;;;21.17;7.78;;;;;;;12.01;75.33;102708.41;5072568;28;20036;-72
2021/09/22 00:13:23;;;;;;;19.52;8.07;;;;;;;12.01;75.61;102723.53;5072910;28;20051;-72
2021/09/22 00:15:51;;;;;;;20.27;8.63;;;;;;;11.99;75.63;102720.09;5055066;28;20053;-73
2021/09/22 00:18:17;;;;;;;25.50;8.50;;;;;;;12.01;75.54;102721.69;5072559;28;20157;-72
2021/09/22 00:20:44;;;;;;;23.30;8.05;;;;;;;12.00;75.50;102722.66;5054754;28;20040;-72
2021/09/22 00:23:11;;;;;;;19.70;8.70;;;;;;;11.98;75.33;102718.41;5054921;28;20048;-72
2021/09/22 00:25:38;;;;;;;19.58;9.10;;;;;;;11.87;76.04;102721.84;5054771;28;20059;-72
2021/09/22 00:28:07;;;;;;;26.77;9.82;;;;;;;11.85;75.07;102723.78;5038149;28;20076;-72
2021/09/22 00:30:34;;;;;;;29.45;10.45;;;;;;;11.83;74.55;102721.22;5072781;28;20178;-73
2021/09/22 00:33:06;;;;;;;31.20;10.93;;;;;;;11.87;75.29;102725.34;5072532;28;20120;-72
2021/09/22 00:35:33;;;;;;;28.85;10.88;;;;;;;11.89;75.15;102730.56;5070986;28;20082;-72
2021/09/22 00:38:01;;;;;;;28.88;11.70;;;;;;;11.86;75.34;102721.00;5072382;28;20048;-73
2021/09/22 00:40:28;;;;;;;33.17;11.48;;;;;;;11.84;75.71;102728.25;5072488;28;20446;-73
2021/09/22 00:42:55;;;;;;;29.23;10.55;;;;;;;11.87;75.43;102730.66;5037954;28;20045;-73
2021/09/22 00:45:22;;;;;;;24.75;9.90;;;;;;;11.94;74.81;102717.81;5072732;28;20072;-73
2021/09/22 00:47:49;;;;;;;28.60;10.02;;;;;;;11.83;74.79;102725.72;5054693;28;20036;-73
2021/09/22 00:50:23;;;;;;;18.33;8.90;;;;;;;11.80;75.11;102724.09;5054267;28;20401;-73
2021/09/22 00:52:50;;;;;;;19.67;8.73;;;;;;;11.76;75.07;102721.81;5054427;28;20037;-73
2021/09/22 00:55:17;;;;;;;18.73;9.07;;;;;;;11.78;75.45;102719.88;5054960;28;20578;-73
2021/09/22 00:57:49;;;;;;;20.80;8.98;;;;;;;11.78;75.04;102718.06;5072158;28;20401;-73
2021/09/22 01:00:18;;;;;;;17.42;8.48;;;;;;;11.75;74.87;102728.06;5037853;28;20496;-73
2021/09/22 01:02:47;;;;;;;21.17;9.07;;;;;;;11.70;75.11;102718.63;5037698;28;20063;-73
2021/09/22 01:05:17;;;;;;;18.50;8.63;;;;;;;11.70;74.99;102718.63;5072060;28;20094;-73
2021/09/22 01:07:45;;;;;;;17.90;8.57;;;;;;;11.65;75.35;102718.13;5072414;28;20033;-73
2021/09/22 01:10:14;;;;;;;19.73;8.38;;;;;;;11.66;75.07;102725.16;5054631;28;20051;-73
2021/09/22 01:12:40;;;;;;;18.83;9.00;;;;;;;11.61;75.57;102718.47;5072248;28;20562;-73
2021/09/22 01:15:08;;;;;;;18.88;8.43;;;;;;;11.60;75.71;102716.75;5072198;28;20036;-73
2021/09/22 01:17:35;;;;;;;17.20;8.13;;;;;;;11.59;75.44;102715.91;5052685;28;20475;-73
2021/09/22 01:20:05;;;;;;;17.70;8.85;;;;;;;11.47;75.89;102715.00;5053995;28;20044;-73
2021/09/22 01:22:33;;;;;;;15.38;7.50;;;;;;;11.48;75.96;102719.34;5038800;28;20040;-73
2021/09/22 01:25:03;;;;;;;18.60;8.68;;;;;;;11.42;76.14;102726.91;5057945;28;20094;-73
2021/09/22 01:27:32;;;;;;;23.52;9.50;;;;;;;11.50;76.36;102719.25;5075894;28;20082;-73
2021/09/22 01:30:02;;;;;;;18.90;8.55;;;;;;;11.51;76.24;102716.50;5057852;28;20041;-74
2021/09/22 01:32:29;;;;;;;19.52;8.20;;;;;;;11.51;76.44;102723.59;5075824;28;20041;-72
2021/09/22 01:34:59;;;;;;;18.55;8.43;;;;;;;11.50;76.53;102728.06;5057424;28;20090;-72
2021/09/22 01:37:41;;;;;;;;;;;;;;;11.47;76.43;102722.13;5076054;28;20033;-72
2021/09/22 01:40:29;;;;;;;16.33;7.63;;;;;;;11.40;76.59;102721.72;5075287;28;19920;-73
2021/09/22 01:42:59;;;;;;;16.75;8.30;;;;;;;11.39;75.95;102713.84;5075608;28;20040;-73
2021/09/22 01:45:32;;;;;;;25.58;8.27;;;;;;;11.46;75.74;102708.00;5075606;28;20053;-72
2021/09/22 01:48:04;;;;;;;18.05;8.05;;;;;;;11.40;76.58;102703.09;5057717;28;20041;-73
2021/09/22 01:50:31;;;;;;;;;;;;;;;11.40;76.55;102704.94;5042188;28;20049;-73
2021/09/22 01:52:58;;;;;;;20.92;7.88;;;;;;;11.40;76.75;102707.59;5039422;28;19927;-73
2021/09/22 01:55:25;;;;;;;22.23;8.55;;;;;;;11.33;75.54;102709.81;5075336;28;20064;-73
2021/09/22 01:58:01;;;;;;;22.20;8.30;;;;;;;11.28;75.58;102702.19;5074728;28;20132;-73
2021/09/22 02:00:48;;;;;;;19.92;8.10;;;;;;;11.35;76.31;102702.63;5070413;28;20036;-73
2021/09/22 02:03:24;;;;;;;19.00;8.95;;;;;;;11.29;76.69;102698.56;5075220;28;20500;-73
2021/09/22 02:06:00;;;;;;;17.83;9.48;;;;;;;11.21;76.30;102692.13;5056867;28;20566;-73
2021/09/22 02:08:28;;;;;;;22.38;9.63;;;;;;;11.12;76.44;102693.63;5074921;28;20119;-73
2021/09/22 02:11:03;;;;;;;18.00;9.20;;;;;;;11.20;76.15;102701.06;5058603;28;20045;-72
2021/09/22 02:13:30;;;;;;;16.50;8.65;;;;;;;11.18;76.15;102695.00;5057420;28;20036;-73
2021/09/22 02:15:57;;;;;;;18.15;10.07;;;;;;;11.20;75.89;102690.44;5057179;28;20048;-73
2021/09/22 02:18:43;;;;;;;16.98;9.00;;;;;;;11.20;76.24;102682.47;5059992;28;20036;-73
2021/09/22 02:21:12;;;;;;;21.23;10.13;;;;;;;11.19;76.64;102683.41;5057269;28;20127;-73
2021/09/22 02:23:41;;;;;;;20.08;9.77;;;;;;;11.19;76.68;102678.97;5073011;28;20048;-73
2021/09/22 02:26:09;;;;;;;19.42;9.07;;;;;;;11.18;76.63;102676.41;5056846;28;20043;-73
2021/09/22 02:28:40;;;;;;;18.45;9.48;;;;;;;11.08;76.19;102678.91;5074725;28;20056;-73
2021/09/22 02:31:08;;;;;;;17.38;9.77;;;;;;;11.14;76.49;102681.09;5057082;28;20056;-73
2021/09/22 02:33:47;;;;;;;23.40;10.15;;;;;;;11.10;77.14;102676.97;5039884;28;20497;-73
2021/09/22 02:36:15;;;;;;;19.02;9.98;;;;;;;11.15;76.70;102669.50;5074021;28;20431;-73
2021/09/22 02:38:53;;;;;;;17.70;9.00;;;;;;;11.19;76.85;102673.66;5074342;28;20040;-73
2021/09/22 02:41:21;;;;;;;19.77;9.98;;;;;;;11.13;77.18;102676.72;5074341;28;20128;-73
2021/09/22 02:43:47;;;;;;;19.60;9.65;;;;;;;11.14;76.94;102678.44;5074369;28;20043;-72
2021/09/22 02:46:15;;;;;;;17.88;9.63;;;;;;;11.11;77.24;102683.97;5056713;28;20071;-72
2021/09/22 02:49:02;;;;;;;19.92;9.88;;;;;;;11.07;77.04;102680.69;5054313;28;20048;-73
2021/09/22 02:51:30;;;;;;;21.27;9.95;;;;;;;11.07;77.59;102671.88;5074371;28;20102;-73
2021/09/22 02:53:57;;;;;;;19.13;9.52;;;;;;;10.97;77.19;102681.44;5074264;28;20040;-73
2021/09/22 02:56:25;;;;;;;18.23;9.90;;;;;;;10.90;77.17;102678.41;5074259;28;20040;-73
2021/09/22 02:58:52;;;;;;;17.50;9.70;;;;;;;10.83;77.30;102685.09;5056470;28;20404;-73
2021/09/22 03:01:19;;;;;;;20.45;9.60;;;;;;;10.89;77.08;102684.66;5074092;28;20036;-73
2021/09/22 03:03:46;;;;;;;17.73;9.40;;;;;;;10.85;77.21;102681.34;5073855;28;20068;-73
2021/09/22 03:06:13;;;;;;;18.20;9.18;;;;;;;10.76;77.51;102682.00;5056020;28;20044;-73
2021/09/22 03:08:40;;;;;;;18.65;9.45;;;;;;;10.74;77.46;102686.59;5039764;28;20131;-73
2021/09/22 03:11:08;;;;;;;19.98;9.70;;;;;;;10.76;77.54;102674.88;5073897;28;20051;-73
2021/09/22 03:13:38;;;;;;;19.85;10.10;;;;;;;10.78;77.52;102676.59;5056254;28;20052;-73
2021/09/22 03:16:07;;;;;;;17.52;9.13;;;;;;;10.79;77.35;102676.50;5055865;28;20041;-72
2021/09/22 03:18:36;;;;;;;24.05;10.18;;;;;;;10.80;77.41;102680.00;5056123;28;20113;-73
2021/09/22 03:21:03;;;;;;;18.52;9.13;;;;;;;10.82;77.47;102681.56;5071547;28;20140;-73
2021/09/22 03:23:32;;;;;;;20.08;10.10;;;;;;;10.81;78.50;102682.53;5055747;28;20045;-73
2021/09/22 03:25:59;;;;;;;23.23;9.77;;;;;;;10.80;78.93;102683.47;5073545;28;20047;-73
2021/09/22 03:28:26;;;;;;;19.73;9.90;;;;;;;10.76;79.29;102671.41;5055997;28;20515;-72
2021/09/22 03:30:54;;;;;;;26.10;10.27;;;;;;;10.79;79.29;102673.84;5039497;28;20378;-73
2021/09/22 03:33:21;;;;;;;19.35;9.90;;;;;;;10.75;79.10;102675.88;5073563;28;20078;-73
2021/09/22 03:35:48;;;;;;;22.08;10.32;;;;;;;10.74;79.24;102671.50;5051782;28;20057;-73
2021/09/22 03:38:17;;;;;;;20.05;9.55;;;;;;;10.77;79.03;102675.75;5035790;28;20099;-74
2021/09/22 03:40:48;;;;;;;;;;;;;;;10.66;79.02;102676.50;5053788;28;20079;-73
2021/09/22 03:43:15;;;;;;;20.55;9.75;;;;;;;10.72;78.82;102662.78;5053273;28;19921;-73
2021/09/22 03:45:42;;;;;;;21.45;9.60;;;;;;;10.78;78.82;102673.94;5033529;28;20043;-73
2021/09/22 03:48:09;;;;;;;22.27;10.07;;;;;;;10.72;79.12;102668.09;5052105;28;20099;-73
2021/09/22 03:50:37;;;;;;;17.42;8.98;;;;;;;10.70;78.92;102661.22;5051795;28;20136;-73
2021/09/22 03:53:23;;;;;;;20.05;9.75;;;;;;;10.66;79.10;102663.25;5052028;28;20041;-73
2021/09/22 03:55:51;;;;;;;22.00;10.32;;;;;;;10.70;79.72;102663.88;5052020;28;20127;-72
2021/09/22 03:58:19;;;;;;;20.98;9.90;;;;;;;10.70;79.26;102658.56;5035244;28;20044;-73
2021/09/22 04:00:46;;;;;;;17.92;9.80;;;;;;;10.64;79.14;102670.47;5047775;28;20566;-73
2021/09/22 04:03:13;;;;;;;19.08;10.27;;;;;;;10.69;79.32;102667.47;5052926;28;20064;-73
2021/09/22 04:05:40;;;;;;;19.85;10.00;;;;;;;10.70;79.15;102669.19;5052302;28;20045;-73
2021/09/22 04:08:08;;;;;;;29.45;9.57;;;;;;;10.67;78.87;102664.09;5052827;28;20098;-73
2021/09/22 04:10:39;;;;;;;24.30;9.63;;;;;;;10.61;78.55;102662.72;5053067;28;20068;-73
2021/09/22 04:13:06;;;;;;;18.02;9.95;;;;;;;10.54;78.04;102667.59;5018929;28;20414;-73
2021/09/22 04:15:39;;;;;;;20.55;9.60;;;;;;;10.56;nan;102672.78;5034328;28;20037;-73
2021/09/22 04:18:08;;;;;;;18.58;9.40;;;;;;;10.56;77.77;102680.75;5051196;28;20049;-73
2021/09/22 04:20:35;;;;;;;20.77;9.95;;;;;;;10.60;77.41;102684.03;5051053;28;20504;-73
2021/09/22 04:23:02;;;;;;;22.50;10.10;;;;;;;10.55;77.82;102687.00;5051486;28;20047;-73
2021/09/22 04:25:28;;;;;;;18.45;9.43;;;;;;;10.53;77.56;102684.47;5051553;28;20076;-73
2021/09/22 04:28:01;;;;;;;20.25;10.32;;;;;;;10.48;77.61;102675.97;5051215;28;20037;-72
2021/09/22 04:30:48;;;;;;;19.38;9.90;;;;;;;10.53;77.84;102689.78;5037844;28;20056;-73
2021/09/22 04:33:34;;;;;;;19.35;10.10;;;;;;;10.49;77.72;102692.75;5052152;28;20064;-72
2021/09/22 04:36:21;;;;;;;19.88;9.77;;;;;;;10.49;77.83;102693.59;5051004;28;20059;-73
2021/09/22 04:39:09;;;;;;;22.48;10.27;;;;;;;10.38;78.57;102702.28;5052363;28;20098;-72
2021/09/22 04:41:55;;;;;;;20.65;10.15;;;;;;;10.42;77.80;102694.13;5050567;28;20049;-72
2021/09/22 04:44:42;;;;;;;21.70;10.98;;;;;;;10.41;77.81;102689.78;5052601;28;20057;-73
2021/09/22 04:47:29;;;;;;;23.80;10.82;;;;;;;10.43;77.27;102690.53;5052410;28;20041;-73
2021/09/22 04:50:16;;;;;;;24.75;12.10;;;;;;;10.37;77.72;102697.09;5037158;28;20456;-73
2021/09/22 04:53:03;;;;;;;26.63;12.95;;;;;;;10.31;78.18;102687.72;5051423;28;20052;-73
2021/09/22 04:55:50;;;;;;;28.42;15.98;;;;;;;10.43;77.99;102690.53;5037179;28;20417;-73
2021/09/22 04:58:37;;;;;;;29.17;16.33;;;;;;;10.32;78.31;102691.25;5055203;28;20574;-72
2021/09/22 05:01:23;;;;;;;33.22;18.67;;;;;;;10.36;78.48;102695.41;5055069;28;20102;-73
2021/09/22 05:04:10;;;;;;;31.70;16.85;;;;;;;10.36;78.56;102700.69;5055114;28;20126;-73
2021/09/22 05:06:57;;;;;;;34.30;18.27;;;;;;;10.34;78.40;102705.25;5056229;28;20067;-72
2021/09/22 05:09:44;;;;;;;39.15;19.73;;;;;;;10.27;78.50;102696.00;5056225;28;20120;-72
2021/09/22 05:12:31;;;;;;;44.22;22.00;;;;;;;10.27;78.82;102696.00;5054869;28;20480;-72
2021/09/22 05:15:18;;;;;;;40.08;23.23;;;;;;;10.35;78.39;102693.69;5056081;28;20044;-72
2021/09/22 05:18:05;;;;;;;45.20;25.98;;;;;;;10.30;78.19;102701.09;5053834;28;20056;-73
2021/09/22 05:20:52;;;;;;;44.08;27.45;;;;;;;10.27;77.92;102706.59;5055504;28;20456;-73
2021/09/22 05:23:38;;;;;;;45.05;29.02;;;;;;;10.29;77.60;102704.69;5054852;28;20071;-73
2021/09/22 05:26:25;;;;;;;48.35;29.17;;;;;;;10.30;77.91;102712.53;5054226;28;20564;-73
2021/09/22 05:29:12;;;;;;;50.88;30.75;;;;;;;10.35;77.70;102706.94;5054412;28;20408;-73
2021/09/22 05:31:58;;;;;;;42.10;28.85;;;;;;;10.34;77.63;102710.56;5054487;28;20164;-73
2021/09/22 05:34:45;;;;;;;41.88;26.85;;;;;;;10.32;77.61;102713.31;5055499;28;20254;-73
2021/09/22 05:37:32;;;;;;;47.75;28.38;;;;;;;10.35;77.58;102709.59;5055330;28;20044;-73
2021/09/22 05:40:19;;;;;;;41.65;24.55;;;;;;;10.32;77.85;102710.66;5053775;28;20138;-73
2021/09/22 05:43:06;;;;;;;41.15;21.23;;;;;;;10.35;77.80;102707.81;5055008;28;20037;-73
2021/09/22 05:45:52;;;;;;;42.45;23.92;;;;;;;10.38;77.64;102715.53;5040178;28;20449;-73
2021/09/22 05:48:39;;;;;;;41.20;21.98;;;;;;;10.41;77.27;102713.66;5055051;28;20029;-73
2021/09/22 05:51:26;;;;;;;38.58;19.80;;;;;;;10.36;77.42;102719.28;5054428;28;20037;-73
2021/09/22 05:54:13;;;;;;;45.90;19.83;;;;;;;10.32;77.84;102720.44;5053890;28;20041;-73
2021/09/22 05:56:59;;;;;;;40.10;18.90;;;;;;;10.33;78.05;102717.69;5054808;28;20068;-73
2021/09/22 05:59:46;;;;;;;35.42;18.13;;;;;;;10.41;77.80;102724.28;5052883;28;20498;-73
2021/09/22 06:02:33;;;;;;;29.73;17.70;;;;;;;10.43;77.81;102719.72;5049598;28;20517;-73
2021/09/22 06:05:19;;;;;;;28.60;16.55;;;;;;;10.48;78.05;102723.75;5054390;28;20045;-73
2021/09/22 06:08:07;;;;;;;36.45;16.80;;;;;;;10.57;77.77;102725.78;5054008;28;20056;-73
2021/09/22 06:10:54;;;;;;;30.33;15.48;;;;;;;10.56;77.57;102720.56;5053751;28;20081;-73
2021/09/22 06:13:41;;;;;;;33.67;15.63;;;;;;;10.64;77.44;102727.97;5026117;28;20143;-73
2021/09/22 06:16:09;;;;;;;31.17;15.07;;;;;;;10.67;77.66;102727.78;5054501;28;20049;-73
2021/09/22 06:18:37;;;;;;;24.13;13.20;;;;;;;10.70;77.27;102731.06;5035321;28;20553;-73
2021/09/22 06:21:06;;;;;;;30.85;14.25;;;;;;;10.76;77.31;102730.63;5053090;28;20040;-72
2021/09/22 06:23:33;;;;;;;30.73;15.48;;;;;;;10.79;77.00;102737.56;5048465;28;20052;-73
2021/09/22 06:26:00;;;;;;;26.92;13.43;;;;;;;10.85;76.78;102737.13;5053139;28;20462;-73
2021/09/22 06:28:26;;;;;;;32.20;13.63;;;;;;;10.82;76.77;102747.09;5054420;28;20068;-73
2021/09/22 06:30:53;;;;;;;28.90;13.30;;;;;;;10.83;76.72;102741.69;5036470;28;20045;-73
2021/09/22 06:33:20;;;;;;;26.02;14.13;;;;;;;10.91;76.91;102741.16;5053451;28;20048;-73
2021/09/22 06:35:55;;;;;;;28.35;14.23;;;;;;;10.80;76.90;102739.25;5052881;28;20567;-73
2021/09/22 06:38:22;;;;;;;26.77;13.68;;;;;;;10.89;77.03;102740.41;5054035;28;20128;-73
2021/09/22 06:40:55;;;;;;;29.17;14.15;;;;;;;10.90;76.92;102739.47;5052611;28;20122;-73
2021/09/22 06:43:23;;;;;;;24.92;13.82;;;;;;;11.02;76.61;102743.06;5054242;28;20037;-73
2021/09/22 06:45:49;;;;;;;30.42;14.40;;;;;;;11.02;77.15;102735.09;5052725;28;20044;-73
2021/09/22 06:48:16;;;;;;;32.17;14.27;;;;;;;11.09;77.04;102739.84;5053116;28;20044;-73
2021/09/22 06:50:44;;;;;;;28.60;13.88;;;;;;;11.22;76.09;102731.84;5050344;28;20480;-73
2021/09/22 06:53:11;;;;;;;29.77;13.95;;;;;;;11.23;76.49;102744.19;5046404;28;20133;-73
2021/09/22 06:55:38;;;;;;;30.02;14.75;;;;;;;11.29;76.46;102740.25;5049365;28;20047;-69
2021/09/22 06:58:06;;;;;;;34.30;14.93;;;;;;;11.30;76.28;102745.44;5050393;28;20033;-69
2021/09/22 07:00:35;;;;;;;33.03;14.43;;;;;;;11.33;76.52;102745.25;5049563;28;20041;-68
2021/09/22 07:03:05;;;;;;;30.77;15.50;;;;;;;11.36;76.00;102738.84;5049035;28;20064;-68
2021/09/22 07:05:32;;;;;;;32.90;15.15;;;;;;;11.41;76.13;102749.16;5043394;28;20052;-68
2021/09/22 07:07:59;;;;;;;30.83;15.10;;;;;;;11.46;75.85;102739.88;5045620;28;20080;-68
2021/09/22 07:10:27;;;;;;;28.50;14.70;;;;;;;11.47;76.29;102748.69;5036375;28;20045;-68
2021/09/22 07:12:55;;;;;;;28.60;14.32;;;;;;;11.41;76.67;102744.69;5044670;28;20401;-68
2021/09/22 07:15:22;;;;;;;29.77;14.02;;;;;;;11.35;76.53;102742.47;5030858;28;20553;-68
2021/09/22 07:17:49;;;;;;;26.52;13.85;;;;;;;11.55;76.26;102745.47;5034935;28;20465;-68
2021/09/22 07:20:15;;;;;;;26.65;13.98;;;;;;;11.51;76.16;102751.03;5046938;28;20456;-68
2021/09/22 07:22:42;;;;;;;27.05;15.02;;;;;;;11.64;76.14;102752.78;5042510;28;20080;-67
2021/09/22 07:25:10;;;;;;;28.25;14.18;;;;;;;11.59;75.79;102747.81;5046633;28;20042;-68
2021/09/22 07:27:37;;;;;;;37.40;14.10;;;;;;;11.57;76.42;102752.41;5037771;28;20051;-68
2021/09/22 07:30:07;;;;;;;28.38;14.48;;;;;;;11.72;75.66;102753.91;5046018;28;20492;-68
2021/09/22 07:32:42;;;;;;;35.08;15.55;;;;;;;11.72;75.29;102761.06;5045489;28;20040;-68
2021/09/22 07:35:10;;;;;;;37.33;15.02;;;;;;;11.66;75.80;102761.50;5043792;28;20040;-68
2021/09/22 07:37:38;;;;;;;31.20;15.43;;;;;;;11.79;75.62;102769.41;5036104;28;20044;-68
2021/09/22 07:40:06;;;;;;;34.03;15.55;;;;;;;11.93;75.05;102771.09;5042255;28;20446;-68
2021/09/22 07:42:33;;;;;;;27.70;15.23;;;;;;;11.99;74.81;102763.53;5041789;28;20051;-68
2021/09/22 07:45:00;;;;;;;38.72;16.42;;;;;;;12.00;75.13;102765.22;5069634;28;20036;-68
2021/09/22 07:47:27;;;;;;;29.70;17.33;;;;;;;12.08;74.53;102757.53;5063307;28;20409;-69
2021/09/22 07:49:55;;;;;;;32.88;16.63;;;;;;;12.16;74.18;102758.75;5036767;28;20036;-68
2021/09/22 07:52:22;;;;;;;36.28;17.67;;;;;;;12.18;74.00;102759.50;5068574;28;20841;-68
2021/09/22 07:54:48;;;;;;;31.00;17.17;;;;;;;12.33;73.97;102760.13;5055628;28;20045;-68
2021/09/22 07:57:17;;;;;;;37.78;17.73;;;;;;;12.36;73.63;102755.44;5069547;28;20045;-68
2021/09/22 07:59:44;;;;;;;35.60;17.52;;;;;;;12.53;73.76;102756.78;5050411;28;20044;-68
2021/09/22 08:02:11;;;;;;;38.08;18.30;;;;;;;12.63;72.48;102763.13;5053062;28;20044;-68
2021/09/22 08:04:38;;;;;;;35.20;18.05;;;;;;;12.72;72.52;102768.72;5028401;28;20040;-68
2021/09/22 08:07:06;;;;;;;46.10;19.70;;;;;;;12.84;72.17;102765.06;5058079;28;20045;-68
2021/09/22 08:09:33;;;;;;;38.58;19.02;;;;;;;12.87;72.34;102759.50;5049751;28;20132;-68
2021/09/22 08:12:00;;;;;;;37.88;18.25;;;;;;;12.97;72.44;102763.16;5048620;28;20036;-68
2021/09/22 08:14:32;;;;;;;;;;;;;;;13.09;71.99;102757.84;5070049;28;20045;-68
2021/09/22 08:17:00;;;;;;;36.33;18.13;;;;;;;13.23;71.20;102760.25;5038083;28;19920;-68
2021/09/22 08:19:28;;;;;;;45.10;18.98;;;;;;;13.30;71.33;102766.78;5056653;28;20540;-68
2021/09/22 08:21:55;;;;;;;34.20;19.38;;;;;;;13.38;71.26;102764.38;5068516;28;20047;-68
2021/09/22 08:24:22;;;;;;;38.28;19.35;;;;;;;13.48;70.78;102763.63;5020025;28;20516;-68
2021/09/22 08:26:52;;;;;;;39.83;18.63;;;;;;;13.52;70.78;102751.75;5065350;28;20045;-68
2021/09/22 08:29:20;;;;;;;37.33;18.85;;;;;;;13.70;70.37;102755.59;5069193;28;20032;-68
2021/09/22 08:31:48;;;;;;;32.17;18.10;;;;;;;13.83;70.11;102756.28;5062475;28;20107;-68
2021/09/22 08:34:15;;;;;;;34.92;17.67;;;;;;;13.94;68.22;102746.53;5066911;28;20041;-68
2021/09/22 08:36:44;;;;;;;32.95;18.02;;;;;;;13.99;68.47;102744.34;5053486;28;20052;-68
2021/09/22 08:39:12;;;;;;;31.05;17.42;;;;;;;13.78;69.75;102744.28;5070755;28;20090;-68
2021/09/22 08:41:40;;;;;;;32.47;17.63;;;;;;;13.96;69.45;102744.59;5080405;28;20090;-68
2021/09/22 08:44:10;;;;;;;31.15;17.83;;;;;;;14.14;69.61;102751.06;5030789;28;20498;-68
2021/09/22 08:46:42;;;;;;;34.72;19.15;;;;;;;14.14;68.90;102737.72;5068079;28;20045;-69
2021/09/22 08:49:09;;;;;;;39.25;19.05;;;;;;;14.31;68.26;102738.94;5062691;28;20045;-68
2021/09/22 08:51:37;;;;;;;45.42;20.48;;;;;;;14.43;67.80;102742.41;5061117;28;20056;-68
2021/09/22 08:54:05;;;;;;;43.65;21.35;;;;;;;14.50;65.80;102743.59;5071640;28;20036;-68
2021/09/22 08:56:35;;;;;;;47.35;21.92;;;;;;;14.66;66.11;102743.16;5062312;28;20127;-68
2021/09/22 08:59:03;;;;;;;47.25;24.23;;;;;;;14.95;65.07;102737.94;5047702;28;20436;-67
2021/09/22 09:01:30;;;;;;;38.42;20.90;;;;;;;14.96;65.77;102733.44;5059279;28;20041;-68
2021/09/22 09:03:57;;;;;;;41.33;20.83;;;;;;;15.15;65.12;102727.31;5060777;28;20062;-68
2021/09/22 09:06:26;;;;;;;37.08;19.85;;;;;;;15.40;64.74;102725.97;5070768;28;20526;-69
2021/09/22 09:08:56;;;;;;;35.92;20.10;;;;;;;15.83;62.06;102724.78;5048576;28;20041;-68
2021/09/22 09:11:25;;;;;;;39.13;20.20;;;;;;;16.23;61.51;102725.63;5041215;28;20102;-68
2021/09/22 09:13:54;;;;;;;33.53;20.08;;;;;;;16.77;59.77;102731.25;5051268;28;20037;-68
2021/09/22 09:16:22;;;;;;;31.10;19.13;;;;;;;17.25;58.17;102714.13;5063066;28;20706;-68
2021/09/22 09:18:53;;;;;;;42.38;20.52;;;;;;;17.63;56.54;102718.41;5068876;28;20119;-74
2021/09/22 09:21:23;;;;;;;41.53;19.93;;;;;;;18.23;55.55;102719.63;5044818;28;20072;-74
2021/09/22 09:23:56;;;;;;;47.00;18.98;;;;;;;18.55;53.94;102723.50;5046578;28;20677;-75
2021/09/22 09:26:27;;;;;;;37.28;20.27;;;;;;;19.10;51.83;102711.53;5072783;28;20070;-74
2021/09/22 09:28:56;;;;;;;40.15;21.00;;;;;;;19.54;51.13;102711.31;5019168;28;20067;-75
2021/09/22 09:31:33;;;;;;;38.60;19.38;;;;;;;20.09;49.33;102708.00;5063522;28;20037;-75
2021/09/22 09:34:03;;;;;;;39.50;20.02;;;;;;;20.97;46.87;102697.34;5068241;28;20122;-74
2021/09/22 09:36:35;;;;;;;42.05;20.00;;;;;;;21.81;45.35;102701.06;5021406;28;20044;-74
2021/09/22 09:39:09;;;;;;;40.38;20.30;;;;;;;22.13;44.84;102690.97;5023561;28;20052;-74
2021/09/22 09:41:45;;;;;;;46.53;20.13;;;;;;;22.50;42.52;102691.13;5019931;28;20053;-74
2021/09/22 09:44:22;;;;;;;38.40;20.70;;;;;;;22.59;42.93;102685.47;5028400;28;20041;-74
2021/09/22 09:46:52;;;;;;;41.17;20.58;;;;;;;22.91;41.67;102690.66;5001203;28;20376;-75
2021/09/22 09:49:21;;;;;;;45.80;21.05;;;;;;;24.04;38.61;102686.41;5021782;28;20072;-74
2021/09/22 09:52:02;;;;;;;37.40;20.45;;;;;;;23.61;39.05;102686.41;5030815;28;20095;-74
2021/09/22 09:54:49;;;;;;;34.65;19.67;;;;;;;24.41;38.82;102684.34;5032459;28;20406;-74
2021/09/22 09:57:18;;;;;;;37.05;20.77;;;;;;;24.52;38.02;102683.84;5031475;28;20041;-74
2021/09/22 09:59:50;;;;;;;44.45;20.55;;;;;;;24.66;38.09;102682.00;5022364;28;20038;-74
2021/09/22 10:02:28;;;;;;;39.65;21.35;;;;;;;24.47;37.83;102675.44;5030922;28;20128;-74
2021/09/22 10:04:56;;;;;;;53.42;21.65;;;;;;;24.22;38.31;102675.06;5027876;28;20099;-75
2021/09/22 10:07:24;;;;;;;36.90;20.63;;;;;;;24.55;37.45;102668.19;5029413;28;20056;-74
2021/09/22 10:09:52;;;;;;;42.35;21.33;;;;;;;25.12;36.94;102664.22;5013536;28;20096;-74
2021/09/22 10:12:19;;;;;;;45.58;20.40;;;;;;;26.08;35.15;102663.09;5035772;28;20034;-74
2021/09/22 10:14:48;;;;;;;35.33;19.85;;;;;;;26.64;34.14;102663.59;5031647;28;20042;-74
2021/09/22 10:17:16;;;;;;;40.72;21.63;;;;;;;26.29;32.85;102658.47;5033319;28;20443;-74
2021/09/22 10:19:46;;;;;;;35.25;19.42;;;;;;;26.58;32.61;102663.38;5030214;28;20124;-74
2021/09/22 10:22:14;;;;;;;34.35;20.20;;;;;;;25.77;33.59;102658.28;5010046;28;20046;-75
2021/09/22 10:24:55;;;;;;;34.45;17.42;;;;;;;26.40;32.65;102657.81;5088320;27;20126;-74
2021/09/22 10:27:33;;;;;;;37.22;19.45;;;;;;;26.76;32.67;102654.56;5097170;27;20403;-73
2021/09/22 10:30:11;;;;;;;32.80;19.95;;;;;;;25.61;34.27;102652.22;5108378;27;20362;-74
2021/09/22 10:32:49;;;;;;;37.63;19.15;;;;;;;25.28;34.96;102652.19;5130754;27;20379;-73
2021/09/22 10:41:07;;;;;;;38.90;18.77;;;;;;;24.20;36.25;102646.50;5102384;27;20462;-73
2021/09/22 10:43:46;;;;;;;35.42;18.52;;;;;;;23.33;36.85;102640.34;5126971;27;20726;-73
2021/09/22 10:46:29;;;;;;;191.85;26.17;;;;;;;23.00;37.48;102640.78;5099158;27;20125;-73
2021/09/22 10:49:14;;;;;;;43.05;19.98;;;;;;;22.67;38.75;102630.41;5089294;27;20446;-73
2021/09/22 10:51:52;;;;;;;36.35;18.15;;;;;;;22.81;39.58;102631.41;5129404;27;20385;-74
2021/09/22 10:54:30;;;;;;;38.60;19.25;;;;;;;22.44;39.57;102614.31;5130656;27;20852;-75
2021/09/22 10:57:12;;;;;;;36.15;18.73;;;;;;;22.59;38.75;102625.09;5127575;27;20372;-76
2021/09/22 11:00:08;;;;;;;33.15;18.08;;;;;;;22.46;38.24;102616.81;5116184;27;20381;-73
2021/09/22 11:02:49;;;;;;;37.72;17.42;;;;;;;22.98;37.73;102616.63;5088877;27;20405;-75
2021/09/22 11:08:05;;;;;;;34.08;17.05;;;;;;;22.89;36.69;102612.38;5052696;27;1196291;-72
2021/09/22 11:10:52;;;;;;;40.60;17.67;;;;;;;23.66;34.96;102605.41;5134922;27;20383;-69
2021/09/22 11:13:33;;;;;;;33.05;15.48;;;;;;;23.66;34.45;102602.69;5118027;27;20396;-71
2021/09/22 11:16:14;;;;;;;35.85;13.45;;;;;;;23.73;33.63;102598.16;5079912;27;20378;-72
2021/09/22 11:18:54;;;;;;;33.42;15.40;;;;;;;23.37;35.35;102598.28;5132615;27;20368;-72
2021/09/22 11:21:36;;;;;;;33.20;14.23;;;;;;;23.14;36.76;102591.22;5049314;28;20757;-71
2021/09/22 11:24:18;;;;;;;186.77;18.77;;;;;;;23.02;35.55;102600.84;5096966;27;20509;-70
2021/09/22 11:27:10;;;;;;;158.98;18.15;;;;;;;22.91;36.66;102596.78;5130345;27;20756;-71
2021/09/22 11:29:50;;;;;;;32.38;15.70;;;;;;;22.95;36.18;102594.53;5088545;27;20891;-72
2021/09/22 11:35:11;;;;;;;30.50;15.88;;;;;;;22.58;36.98;102589.13;5081836;27;20138;-71
2021/09/22 11:37:52;;;;;;;34.83;16.85;;;;;;;22.61;37.57;102587.88;5130845;27;20375;-71
2021/09/22 11:40:34;;;;;;;37.40;18.02;;;;;;;22.71;37.54;102582.19;5110427;27;20181;-70
2021/09/22 11:43:18;;;;;;;81.00;28.00;;;;;;;22.79;36.48;102574.81;5131060;27;20379;-70
2021/09/22 11:46:01;;;;;;;39.13;18.55;;;;;;;22.97;34.87;102576.22;5128308;27;20369;-70
2021/09/22 11:48:40;;;;;;;120.88;19.15;;;;;;;22.85;37.08;102570.50;5068417;28;20390;-70